createdAt,value
2022-12-06T00:00:22.000Z,34.1
2022-12-06T00:03:06.000Z,31.2
2022-12-06T00:05:51.000Z,40.1
2022-12-06T00:08:36.000Z,39.1
2022-12-06T00:11:20.000Z,41
2022-12-06T00:14:05.000Z,31.8
2022-12-06T00:16:50.000Z,38.1
2022-12-06T00:19:34.000Z,41.8
2022-12-06T00:22:19.000Z,38.1
2022-12-06T00:25:04.000Z,43.5
2022-12-06T00:26:22.000Z,39
2022-12-06T00:27:48.000Z,53.6
2022-12-06T00:30:33.000Z,43.6
2022-12-06T00:33:17.000Z,43.9
2022-12-06T00:36:02.000Z,46.7
2022-12-06T00:38:47.000Z,36.7
2022-12-06T00:41:31.000Z,45.5
2022-12-06T00:44:16.000Z,39.9
2022-12-06T00:47:01.000Z,34.3
2022-12-06T00:49:45.000Z,39.9
2022-12-06T00:52:30.000Z,60
2022-12-06T00:53:48.000Z,45.5
2022-12-06T00:55:15.000Z,41
2022-12-06T00:57:59.000Z,37.1
2022-12-06T01:00:44.000Z,41.8
2022-12-06T01:03:28.000Z,56.5
2022-12-06T01:06:13.000Z,46.9
2022-12-06T01:08:58.000Z,40.8
2022-12-06T01:11:59.000Z,38.2
2022-12-06T01:14:43.000Z,39.8
2022-12-06T01:17:28.000Z,40.7
2022-12-06T01:20:13.000Z,42.7
2022-12-06T01:21:30.000Z,35.7
2022-12-06T01:22:57.000Z,39.2
2022-12-06T01:28:27.000Z,39.7
2022-12-06T01:31:11.000Z,46.1
2022-12-06T01:33:56.000Z,47.6
2022-12-06T01:36:41.000Z,56.7
2022-12-06T01:39:25.000Z,48.3
2022-12-06T01:42:10.000Z,41.2
2022-12-06T01:44:54.000Z,52.6
2022-12-06T01:47:39.000Z,57.6
2022-12-06T01:48:57.000Z,75.6
2022-12-06T01:50:24.000Z,51
2022-12-06T01:53:08.000Z,48.9
2022-12-06T01:55:53.000Z,49.9
2022-12-06T01:58:38.000Z,39.4
2022-12-06T02:01:22.000Z,51.2
2022-12-06T02:04:07.000Z,53.7
2022-12-06T02:06:52.000Z,48.3
2022-12-06T02:09:36.000Z,50.1
2022-12-06T02:12:21.000Z,49.2
2022-12-06T02:15:06.000Z,47.7
2022-12-06T02:16:23.000Z,51.4
2022-12-06T02:17:50.000Z,44.5
2022-12-06T02:20:35.000Z,48.7
2022-12-06T02:23:19.000Z,43.8
2022-12-06T02:26:04.000Z,46.6
2022-12-06T02:28:49.000Z,57.3
2022-12-06T02:31:33.000Z,50.8
2022-12-06T02:34:18.000Z,52.9
2022-12-06T02:37:03.000Z,63.9
2022-12-06T02:39:47.000Z,50
2022-12-06T02:42:32.000Z,59
2022-12-06T02:43:50.000Z,49.3
2022-12-06T02:45:17.000Z,43.7
2022-12-06T02:48:01.000Z,42.9
2022-12-06T02:50:46.000Z,52.2
2022-12-06T02:53:31.000Z,61.2
2022-12-06T02:56:15.000Z,48.4
2022-12-06T02:59:00.000Z,70.3
2022-12-06T03:01:44.000Z,78.5
2022-12-06T03:04:29.000Z,74.2
2022-12-06T03:07:14.000Z,53.3
2022-12-06T03:09:58.000Z,50
2022-12-06T03:11:16.000Z,55.5
2022-12-06T03:12:43.000Z,66.1
2022-12-06T03:15:28.000Z,45.1
2022-12-06T03:18:12.000Z,47.5
2022-12-06T03:20:57.000Z,61.6
2022-12-06T03:26:26.000Z,70.9
2022-12-06T03:29:11.000Z,123.1
2022-12-06T03:31:56.000Z,62.2
2022-12-06T03:34:40.000Z,55.6
2022-12-06T03:37:25.000Z,58.7
2022-12-06T03:38:43.000Z,43.1
2022-12-06T03:40:09.000Z,68.2
2022-12-06T03:42:54.000Z,77.9
2022-12-06T03:45:39.000Z,52.5
2022-12-06T03:48:23.000Z,81.3
2022-12-06T03:51:08.000Z,55.7
2022-12-06T03:53:53.000Z,54.4
2022-12-06T03:56:37.000Z,77.3
2022-12-06T03:59:22.000Z,48.2
2022-12-06T04:02:07.000Z,70.1
2022-12-06T04:04:51.000Z,87
2022-12-06T04:06:09.000Z,78.8
2022-12-06T04:07:36.000Z,81.7
2022-12-06T04:10:20.000Z,81.2
2022-12-06T04:13:05.000Z,111.1
2022-12-06T04:15:50.000Z,67.3
2022-12-06T04:18:34.000Z,76.2
2022-12-06T04:21:19.000Z,56.8
2022-12-06T04:24:04.000Z,48.1
2022-12-06T04:26:48.000Z,60.5
2022-12-06T04:29:33.000Z,89.4
2022-12-06T04:32:18.000Z,60.8
2022-12-06T04:33:35.000Z,77.2
2022-12-06T04:35:02.000Z,88
2022-12-06T04:37:47.000Z,66.6
2022-12-06T04:40:32.000Z,64
2022-12-06T04:43:16.000Z,71.4
2022-12-06T04:46:01.000Z,55.3
2022-12-06T04:48:45.000Z,60.5
2022-12-06T04:51:30.000Z,81.5
2022-12-06T04:54:15.000Z,67.2
2022-12-06T04:56:59.000Z,63
2022-12-06T04:59:44.000Z,50.6
2022-12-06T05:01:02.000Z,67.6
2022-12-06T05:02:29.000Z,68.5
2022-12-06T05:05:13.000Z,89
2022-12-06T05:07:58.000Z,65.2
2022-12-06T05:10:43.000Z,58.1
2022-12-06T05:13:27.000Z,62.5
2022-12-06T05:16:12.000Z,60.3
2022-12-06T05:18:57.000Z,63.1
2022-12-06T05:21:41.000Z,60.4
2022-12-06T05:24:26.000Z,76.6
2022-12-06T05:27:10.000Z,46.4
2022-12-06T05:28:28.000Z,62.5
2022-12-06T05:29:55.000Z,63.2
2022-12-06T05:32:40.000Z,51.8
2022-12-06T05:35:24.000Z,43
2022-12-06T05:38:09.000Z,74.2
2022-12-06T05:40:54.000Z,79.3
2022-12-06T05:43:38.000Z,73.6
2022-12-06T05:46:23.000Z,64.8
2022-12-06T05:49:08.000Z,59.4
2022-12-06T05:51:52.000Z,69.2
2022-12-06T05:54:37.000Z,62.7
2022-12-06T05:55:55.000Z,48.4
2022-12-06T05:57:22.000Z,58.2
2022-12-06T06:00:06.000Z,56.8
2022-12-06T06:02:51.000Z,49.3
2022-12-06T06:05:35.000Z,71.2
2022-12-06T06:08:20.000Z,67.4
2022-12-06T06:11:05.000Z,76.1
2022-12-06T06:13:49.000Z,94.6
2022-12-06T06:16:34.000Z,71.3
2022-12-06T06:19:19.000Z,76
2022-12-06T06:22:03.000Z,74.9
2022-12-06T06:23:21.000Z,58.2
2022-12-06T06:24:48.000Z,71.9
2022-12-06T06:27:33.000Z,67.5
2022-12-06T06:30:17.000Z,95.8
2022-12-06T06:33:02.000Z,84.8
2022-12-06T06:35:46.000Z,137.7
2022-12-06T06:38:31.000Z,65
2022-12-06T06:41:16.000Z,63.6
2022-12-06T06:44:00.000Z,76.4
2022-12-06T06:46:45.000Z,66.3
2022-12-06T06:49:30.000Z,61.6
2022-12-06T06:50:48.000Z,86.1
2022-12-06T06:52:14.000Z,85.2
2022-12-06T06:54:59.000Z,68.5
2022-12-06T06:57:44.000Z,67.2
2022-12-06T07:00:28.000Z,77
2022-12-06T07:03:13.000Z,78.9
2022-12-06T07:05:58.000Z,74
2022-12-06T07:08:42.000Z,68.9
2022-12-06T07:11:27.000Z,70.2
2022-12-06T07:14:11.000Z,64.4
2022-12-06T07:16:56.000Z,76.4
2022-12-06T07:18:14.000Z,70.5
2022-12-06T07:19:41.000Z,71.6
2022-12-06T07:22:25.000Z,88.4
2022-12-06T07:25:10.000Z,64.3
2022-12-06T07:27:55.000Z,81.8
2022-12-06T07:30:39.000Z,70.2
2022-12-06T07:33:24.000Z,82.2
2022-12-06T07:36:09.000Z,70
2022-12-06T07:38:53.000Z,66.2
2022-12-06T07:41:38.000Z,69.9
2022-12-06T07:44:23.000Z,70.7
2022-12-06T07:45:40.000Z,66.6
2022-12-06T07:47:07.000Z,63.3
2022-12-06T07:49:52.000Z,69
2022-12-06T07:52:36.000Z,66.4
2022-12-06T07:55:21.000Z,60.7
2022-12-06T07:58:06.000Z,71.2
2022-12-06T08:00:50.000Z,52.2
2022-12-06T08:03:35.000Z,63.4
2022-12-06T08:06:20.000Z,59.8
2022-12-06T08:09:04.000Z,62.9
2022-12-06T08:11:49.000Z,63.6
2022-12-06T08:13:07.000Z,61.4
2022-12-06T08:14:34.000Z,59
2022-12-06T08:17:18.000Z,72.7
2022-12-06T08:20:03.000Z,81.8
2022-12-06T08:22:47.000Z,68.8
2022-12-06T08:25:32.000Z,70.5
2022-12-06T08:28:17.000Z,71.8
2022-12-06T08:31:01.000Z,64.1
2022-12-06T08:33:46.000Z,59.9
2022-12-06T08:36:31.000Z,74.2
2022-12-06T08:39:15.000Z,70.4
2022-12-06T08:40:33.000Z,50.9
2022-12-06T08:42:00.000Z,65.6
2022-12-06T08:44:45.000Z,58.8
2022-12-06T08:47:29.000Z,65.2
2022-12-06T08:50:14.000Z,62.6
2022-12-06T08:52:59.000Z,59.1
2022-12-06T08:55:43.000Z,69.1
2022-12-06T08:58:28.000Z,62.8
2022-12-06T09:01:12.000Z,70.5
2022-12-06T09:03:57.000Z,53.9
2022-12-06T09:06:42.000Z,63.6
2022-12-06T09:08:00.000Z,52.4
2022-12-06T09:09:26.000Z,58.8
2022-12-06T09:12:11.000Z,59.9
2022-12-06T09:14:56.000Z,57
2022-12-06T09:17:40.000Z,69.4
2022-12-06T09:20:25.000Z,71.9
2022-12-06T09:23:10.000Z,60.5
2022-12-06T09:25:54.000Z,56.8
2022-12-06T09:28:39.000Z,66.2
2022-12-06T09:31:24.000Z,51.8
2022-12-06T09:34:25.000Z,56.9
2022-12-06T09:35:42.000Z,54.8
2022-12-06T09:37:09.000Z,57.4
2022-12-06T09:39:54.000Z,63.9
2022-12-06T09:42:38.000Z,62.3
2022-12-06T09:45:23.000Z,61.3
2022-12-06T09:48:08.000Z,64.8
2022-12-06T09:50:52.000Z,78.9
2022-12-06T09:53:37.000Z,59.3
2022-12-06T09:56:22.000Z,75.9
2022-12-06T09:59:06.000Z,63.6
2022-12-06T10:01:51.000Z,70.5
2022-12-06T10:03:09.000Z,62.5
2022-12-06T10:04:36.000Z,55.3
2022-12-06T10:07:20.000Z,60.6
2022-12-06T10:10:05.000Z,53.6
2022-12-06T10:12:50.000Z,57.6
2022-12-06T10:15:34.000Z,63.6
2022-12-06T10:18:19.000Z,72.6
2022-12-06T10:21:03.000Z,55.6
2022-12-06T10:23:48.000Z,63.7
2022-12-06T10:26:33.000Z,65.5
2022-12-06T10:29:17.000Z,63.2
2022-12-06T10:30:35.000Z,66.2
2022-12-06T10:32:02.000Z,60
2022-12-06T10:34:47.000Z,59.3
2022-12-06T10:37:31.000Z,66.6
2022-12-06T10:40:16.000Z,54.5
2022-12-06T10:43:01.000Z,52.8
2022-12-06T10:45:45.000Z,51.4
2022-12-06T10:48:30.000Z,52.7
2022-12-06T10:51:15.000Z,53
2022-12-06T10:53:59.000Z,50.9
2022-12-06T10:56:44.000Z,47.1
2022-12-06T10:58:02.000Z,50.4
2022-12-06T10:59:28.000Z,51.2
2022-12-06T11:02:13.000Z,45.1
2022-12-06T11:04:58.000Z,37.8
2022-12-06T11:07:42.000Z,45.6
2022-12-06T11:10:27.000Z,39.9
2022-12-06T11:13:12.000Z,43.7
2022-12-06T11:15:56.000Z,36.3
2022-12-06T11:18:41.000Z,40.3
2022-12-06T11:21:26.000Z,32.7
2022-12-06T11:25:28.000Z,33.2
2022-12-06T11:26:55.000Z,36.4
2022-12-06T11:29:40.000Z,32.9
2022-12-06T11:32:24.000Z,32.4
2022-12-06T11:35:09.000Z,34.3
2022-12-06T11:37:53.000Z,27.5
2022-12-06T11:40:38.000Z,29.3
2022-12-06T11:43:23.000Z,24.1
2022-12-06T11:46:07.000Z,28.4
2022-12-06T11:48:52.000Z,30.7
2022-12-06T11:51:37.000Z,25.8
2022-12-06T11:52:54.000Z,36.9
2022-12-06T11:54:21.000Z,25.9
2022-12-06T11:57:06.000Z,24
2022-12-06T11:59:51.000Z,25.7
2022-12-06T12:02:35.000Z,24.9
2022-12-06T12:05:20.000Z,22.5
2022-12-06T12:08:04.000Z,23.2
2022-12-06T12:10:49.000Z,24.1
2022-12-06T12:13:34.000Z,21.5
2022-12-06T12:16:18.000Z,23.3
2022-12-06T12:19:03.000Z,28.8
2022-12-06T12:20:21.000Z,24.3
2022-12-06T12:21:48.000Z,24.3
2022-12-06T12:24:32.000Z,23.5
2022-12-06T12:27:17.000Z,24.9
2022-12-06T12:30:02.000Z,18.8
2022-12-06T12:32:46.000Z,24.9
2022-12-06T12:35:31.000Z,22
2022-12-06T12:38:16.000Z,19.5
2022-12-06T12:41:00.000Z,18.9
2022-12-06T12:43:45.000Z,22.3
2022-12-06T12:46:29.000Z,21.2
2022-12-06T12:47:47.000Z,22.5
2022-12-06T12:49:14.000Z,22.6
2022-12-06T12:51:59.000Z,21.3
2022-12-06T12:54:43.000Z,19.7
2022-12-06T12:57:28.000Z,24.8
2022-12-06T13:00:13.000Z,23.5
2022-12-06T13:02:57.000Z,22.6
2022-12-06T13:05:42.000Z,26.3
2022-12-06T13:08:27.000Z,22.7
2022-12-06T13:11:11.000Z,26.6
2022-12-06T13:13:56.000Z,30.6
2022-12-06T13:15:14.000Z,28.9
2022-12-06T13:16:40.000Z,21.9
2022-12-06T13:19:25.000Z,25.3
2022-12-06T13:22:10.000Z,27
2022-12-06T13:24:54.000Z,23.6
2022-12-06T13:27:39.000Z,28.2
2022-12-06T13:30:24.000Z,27.3
2022-12-06T13:33:08.000Z,31.8
2022-12-06T13:35:53.000Z,50.5
2022-12-06T13:38:38.000Z,25
2022-12-06T13:41:22.000Z,23.2
2022-12-06T13:42:40.000Z,24.6
2022-12-06T13:44:07.000Z,15.6
2022-12-06T13:46:52.000Z,15.8
2022-12-06T13:49:36.000Z,12.4
2022-12-06T13:52:21.000Z,9.6
2022-12-06T13:55:05.000Z,8.3
2022-12-06T13:57:50.000Z,11.8
2022-12-06T14:00:35.000Z,7.6
2022-12-06T14:03:19.000Z,10.5
2022-12-06T14:06:04.000Z,11.2
2022-12-06T14:08:49.000Z,9.2
2022-12-06T14:10:07.000Z,10.2
2022-12-06T14:11:33.000Z,10.8
2022-12-06T14:14:18.000Z,11.7
2022-12-06T14:17:03.000Z,10.5
2022-12-06T14:19:47.000Z,13.3
2022-12-06T14:22:32.000Z,8.7
2022-12-06T14:25:16.000Z,11.6
2022-12-06T14:28:01.000Z,9.9
2022-12-06T14:30:46.000Z,12.2
2022-12-06T14:33:30.000Z,10.9
2022-12-06T14:36:15.000Z,9.2
2022-12-06T14:37:33.000Z,9.9
2022-12-06T14:39:00.000Z,10.2
2022-12-06T14:41:44.000Z,9.6
2022-12-06T14:44:29.000Z,12.2
2022-12-06T14:47:14.000Z,10.9
2022-12-06T14:49:58.000Z,12.2
2022-12-06T14:52:43.000Z,10.3
2022-12-06T14:55:28.000Z,9.2
2022-12-06T14:58:12.000Z,8.8
2022-12-06T15:00:57.000Z,8.3
2022-12-06T15:03:41.000Z,10.4
2022-12-06T15:04:59.000Z,8.7
2022-12-06T15:06:26.000Z,10.5
2022-12-06T15:09:11.000Z,9
2022-12-06T15:11:55.000Z,8.1
2022-12-06T15:14:40.000Z,10.3
2022-12-06T15:17:25.000Z,9.8
2022-12-06T15:20:09.000Z,7.6
2022-12-06T15:22:54.000Z,9.5
2022-12-06T15:25:39.000Z,10.7
2022-12-06T15:28:23.000Z,9.7
2022-12-06T15:31:08.000Z,11.3
2022-12-06T15:32:26.000Z,8.7
2022-12-06T15:33:52.000Z,9.2
2022-12-06T15:36:37.000Z,11.2
2022-12-06T15:39:22.000Z,8.2
2022-12-06T15:42:06.000Z,11
2022-12-06T15:44:51.000Z,8.2
2022-12-06T15:47:36.000Z,10
2022-12-06T15:50:20.000Z,10
2022-12-06T15:53:05.000Z,10.5
2022-12-06T15:55:50.000Z,10.9
2022-12-06T15:58:34.000Z,9.6
2022-12-06T15:59:52.000Z,11.8
2022-12-06T16:01:19.000Z,10.8
2022-12-06T16:04:04.000Z,9.1
2022-12-06T16:06:48.000Z,9.5
2022-12-06T16:09:33.000Z,10.2
2022-12-06T16:12:17.000Z,9.1
2022-12-06T16:15:02.000Z,10.1
2022-12-06T16:17:47.000Z,10.6
2022-12-06T16:20:31.000Z,10.6
2022-12-06T16:23:16.000Z,10
2022-12-06T16:26:01.000Z,9.6
2022-12-06T16:27:19.000Z,9.9
2022-12-06T16:28:45.000Z,9.9
2022-12-06T16:31:30.000Z,7.6
2022-12-06T16:34:15.000Z,11
2022-12-06T16:36:59.000Z,11.6
2022-12-06T16:39:44.000Z,11.2
2022-12-06T16:42:29.000Z,9.3
2022-12-06T16:45:13.000Z,14
2022-12-06T16:47:58.000Z,12.1
2022-12-06T16:50:42.000Z,14.3
2022-12-06T16:53:27.000Z,14.5
2022-12-06T16:56:12.000Z,12.1
2022-12-06T16:58:56.000Z,11.2
2022-12-06T17:01:41.000Z,11.9
2022-12-06T17:04:26.000Z,10.6
2022-12-06T17:07:10.000Z,10.8
2022-12-06T17:09:55.000Z,9.8
2022-12-06T17:12:40.000Z,12.2
2022-12-06T17:15:24.000Z,9.8
2022-12-06T17:18:09.000Z,9.5
2022-12-06T17:20:54.000Z,9.4
2022-12-06T17:22:12.000Z,9.7
2022-12-06T17:23:38.000Z,9.1
2022-12-06T17:26:23.000Z,8.9
2022-12-06T17:29:07.000Z,11.1
2022-12-06T17:31:52.000Z,9.4
2022-12-06T17:34:37.000Z,9.2
2022-12-06T17:37:21.000Z,8.7
2022-12-06T17:40:06.000Z,7.8
2022-12-06T17:45:35.000Z,9.1
2022-12-06T17:48:20.000Z,12.9
2022-12-06T17:49:38.000Z,9.9
2022-12-06T17:51:05.000Z,12.3
2022-12-06T17:53:49.000Z,8.9
2022-12-06T17:56:34.000Z,9.7
2022-12-06T17:59:35.000Z,9.7
2022-12-06T18:02:20.000Z,11.9
2022-12-06T18:05:04.000Z,9.8
2022-12-06T18:07:49.000Z,12.5
2022-12-06T18:10:33.000Z,11.5
2022-12-06T18:13:18.000Z,12.5
2022-12-06T18:16:03.000Z,13.1
2022-12-06T18:17:20.000Z,14.3
2022-12-06T18:18:47.000Z,10.4
2022-12-06T18:24:17.000Z,9.2
2022-12-06T18:27:01.000Z,10.8
2022-12-06T18:29:46.000Z,11.4
2022-12-06T18:32:31.000Z,13.5
2022-12-06T18:35:15.000Z,11.7
2022-12-06T18:38:00.000Z,11.7
2022-12-06T18:40:44.000Z,11
2022-12-06T18:43:29.000Z,10.9
2022-12-06T18:44:47.000Z,10.1
2022-12-06T18:46:14.000Z,12
2022-12-06T18:48:58.000Z,13.2
2022-12-06T18:51:43.000Z,12.8
2022-12-06T18:54:28.000Z,13.9
2022-12-06T18:57:12.000Z,12.6
2022-12-06T18:59:57.000Z,14.4
2022-12-06T19:02:42.000Z,12.3
2022-12-06T19:05:26.000Z,12.1
2022-12-06T19:08:11.000Z,14.6
2022-12-06T19:10:56.000Z,15.2
2022-12-06T19:12:13.000Z,13.9
2022-12-06T19:13:40.000Z,12.8
2022-12-06T19:16:25.000Z,10.7
2022-12-06T19:19:09.000Z,14.4
2022-12-06T19:21:54.000Z,11.1
2022-12-06T19:24:39.000Z,15.6
2022-12-06T19:27:23.000Z,13.5
2022-12-06T19:30:08.000Z,14.7
2022-12-06T19:32:53.000Z,11.5
2022-12-06T19:35:37.000Z,11.6
2022-12-06T19:38:22.000Z,13.1
2022-12-06T19:39:40.000Z,15.2
2022-12-06T19:41:07.000Z,15.1
2022-12-06T19:43:51.000Z,18.2
2022-12-06T19:46:36.000Z,14.2
2022-12-06T19:49:21.000Z,15.4
2022-12-06T19:52:05.000Z,13.7
2022-12-06T19:54:50.000Z,13.1
2022-12-06T19:57:34.000Z,14.1
2022-12-06T20:00:19.000Z,15.1
2022-12-06T20:03:04.000Z,13.8
2022-12-06T20:05:48.000Z,14.9
2022-12-06T20:07:06.000Z,14.3
2022-12-06T20:08:33.000Z,16
2022-12-06T20:11:18.000Z,16.1
2022-12-06T20:14:02.000Z,16.3
2022-12-06T20:16:47.000Z,15
2022-12-06T20:19:32.000Z,16.9
2022-12-06T20:22:16.000Z,14.8
2022-12-06T20:25:01.000Z,17.5
2022-12-06T20:27:45.000Z,14.3
2022-12-06T20:30:30.000Z,14.5
2022-12-06T20:33:15.000Z,19.2
2022-12-06T20:34:33.000Z,20.1
2022-12-06T20:35:59.000Z,18.1
2022-12-06T20:38:44.000Z,19.1
2022-12-06T20:41:29.000Z,15.6
2022-12-06T20:44:13.000Z,19.8
2022-12-06T20:46:58.000Z,17.3
2022-12-06T20:49:43.000Z,16.7
2022-12-06T20:52:27.000Z,19.7
2022-12-06T20:55:12.000Z,20.4
2022-12-06T20:57:57.000Z,18.4
2022-12-06T21:00:41.000Z,20
2022-12-06T21:01:59.000Z,19.1
2022-12-06T21:03:26.000Z,21
2022-12-06T21:06:10.000Z,19.4
2022-12-06T21:08:55.000Z,20.4
2022-12-06T21:11:40.000Z,20.3
2022-12-06T21:14:24.000Z,20.4
2022-12-06T21:17:09.000Z,21.3
2022-12-06T21:19:54.000Z,20.8
2022-12-06T21:22:38.000Z,24.2
2022-12-06T21:25:23.000Z,22.6
2022-12-06T21:28:08.000Z,22.8
2022-12-06T21:29:25.000Z,32.4
2022-12-06T21:30:52.000Z,40.3
2022-12-06T21:33:37.000Z,45.1
2022-12-06T21:36:22.000Z,48.7
2022-12-06T21:39:06.000Z,54.1
2022-12-06T21:41:51.000Z,59.8
2022-12-06T21:44:35.000Z,53.1
2022-12-06T21:47:20.000Z,60.1
2022-12-06T21:50:05.000Z,53.2
2022-12-06T21:52:49.000Z,57.9
2022-12-06T21:55:34.000Z,57.2
2022-12-06T21:56:52.000Z,54.9
2022-12-06T21:58:19.000Z,59.9
2022-12-06T22:01:03.000Z,66.1
2022-12-06T22:03:48.000Z,73.1
2022-12-06T22:06:33.000Z,77.5
2022-12-06T22:09:17.000Z,88.2
2022-12-06T22:12:02.000Z,82.7
2022-12-06T22:14:47.000Z,98.8
2022-12-06T22:17:31.000Z,77.2
2022-12-06T22:20:16.000Z,88.2
2022-12-06T22:23:00.000Z,99.7
2022-12-06T22:24:18.000Z,94.2
2022-12-06T22:25:45.000Z,98.7
2022-12-06T22:28:30.000Z,86.4
2022-12-06T22:31:14.000Z,89.6
2022-12-06T22:33:59.000Z,73.9
2022-12-06T22:36:44.000Z,87.9
2022-12-06T22:39:28.000Z,81.1
2022-12-06T22:42:13.000Z,90.1
2022-12-06T22:44:58.000Z,93.5
2022-12-06T22:47:42.000Z,81.8
2022-12-06T22:50:27.000Z,91.3
2022-12-06T22:51:45.000Z,88.6
2022-12-06T22:53:12.017Z,81
2022-12-06T22:55:56.000Z,71.9
2022-12-06T22:58:41.000Z,73.6
2022-12-06T23:01:25.000Z,73.3
2022-12-06T23:04:10.000Z,64
2022-12-06T23:06:55.000Z,60.3
2022-12-06T23:09:39.000Z,50.6
2022-12-06T23:12:24.000Z,51.9
2022-12-06T23:15:09.000Z,54.1
2022-12-06T23:17:53.000Z,50.4
2022-12-06T23:19:11.000Z,52.9
2022-12-06T23:20:38.000Z,48.7
2022-12-06T23:23:23.000Z,47.8
2022-12-06T23:26:07.000Z,44.5
2022-12-06T23:28:52.000Z,52.5
2022-12-06T23:31:37.000Z,48.3
2022-12-06T23:34:21.000Z,51.3
2022-12-06T23:37:06.000Z,50.3
2022-12-06T23:39:51.000Z,39.7
2022-12-06T23:42:51.000Z,41.6
2022-12-06T23:45:36.000Z,38
2022-12-06T23:46:54.000Z,39.7
2022-12-06T23:48:21.000Z,38
2022-12-06T23:51:06.000Z,34.4
2022-12-06T23:54:06.000Z,36.1
2022-12-06T23:56:51.000Z,34.9
2022-12-06T23:59:36.000Z,32.4
